sensor_id;sensor_type;location;lat;lon;timestamp;temperature;humidity
33881;DHT22;20172;47.530;10.256;2023-07-31T00:00:26;14.80;99.90
33881;DHT22;20172;47.530;10.256;2023-07-31T00:02:52;14.80;99.90
33881;DHT22;20172;47.530;10.256;2023-07-31T00:05:20;14.90;99.90
33881;DHT22;20172;47.530;10.256;2023-07-31T00:07:45;14.90;99.90
33881;DHT22;20172;47.530;10.256;2023-07-31T00:10:11;15.00;99.90
33881;DHT22;20172;47.530;10.256;2023-07-31T00:12:37;15.00;99.90
33881;DHT22;20172;47.530;10.256;2023-07-31T00:15:03;15.00;99.90
33881;DHT22;20172;47.530;10.256;2023-07-31T00:17:29;15.00;99.90
33881;DHT22;20172;47.530;10.256;2023-07-31T00:19:55;14.90;99.90
33881;DHT22;20172;47.530;10.256;2023-07-31T00:22:20;14.90;99.90
33881;DHT22;20172;47.530;10.256;2023-07-31T00:24:46;14.90;99.90
33881;DHT22;20172;47.530;10.256;2023-07-31T00:27:11;14.90;99.90
33881;DHT22;20172;47.530;10.256;2023-07-31T00:29:37;14.90;99.90
33881;DHT22;20172;47.530;10.256;2023-07-31T00:32:02;14.80;99.90
33881;DHT22;20172;47.530;10.256;2023-07-31T00:34:28;14.70;99.90
33881;DHT22;20172;47.530;10.256;2023-07-31T00:36:54;14.70;99.90
33881;DHT22;20172;47.530;10.256;2023-07-31T00:39:19;14.60;99.90
33881;DHT22;20172;47.530;10.256;2023-07-31T00:41:45;14.60;99.90
33881;DHT22;20172;47.530;10.256;2023-07-31T00:44:10;14.60;99.90
33881;DHT22;20172;47.530;10.256;2023-07-31T00:46:36;14.60;99.90
33881;DHT22;20172;47.530;10.256;2023-07-31T00:49:01;14.60;99.90
33881;DHT22;20172;47.530;10.256;2023-07-31T00:51:27;14.60;99.90
33881;DHT22;20172;47.530;10.256;2023-07-31T00:53:53;14.50;99.90
33881;DHT22;20172;47.530;10.256;2023-07-31T00:56:21;14.50;99.90
33881;DHT22;20172;47.530;10.256;2023-07-31T00:58:47;14.50;99.90
33881;DHT22;20172;47.530;10.256;2023-07-31T01:01:12;14.40;99.90
33881;DHT22;20172;47.530;10.256;2023-07-31T01:03:38;14.40;99.90
33881;DHT22;20172;47.530;10.256;2023-07-31T01:10:56;14.20;99.90
33881;DHT22;20172;47.530;10.256;2023-07-31T01:13:27;14.20;99.90
33881;DHT22;20172;47.530;10.256;2023-07-31T01:15:53;14.10;99.90
33881;DHT22;20172;47.530;10.256;2023-07-31T01:18:21;14.10;99.90
33881;DHT22;20172;47.530;10.256;2023-07-31T01:20:47;14.10;99.90
33881;DHT22;20172;47.530;10.256;2023-07-31T01:28:23;14.10;99.90
33881;DHT22;20172;47.530;10.256;2023-07-31T01:30:50;14.10;99.90
33881;DHT22;20172;47.530;10.256;2023-07-31T01:33:16;14.20;99.90
33881;DHT22;20172;47.530;10.256;2023-07-31T01:35:44;14.30;99.90
33881;DHT22;20172;47.530;10.256;2023-07-31T01:38:10;14.20;99.90
33881;DHT22;20172;47.530;10.256;2023-07-31T01:40:36;14.20;99.90
33881;DHT22;20172;47.530;10.256;2023-07-31T01:43:02;14.20;99.90
33881;DHT22;20172;47.530;10.256;2023-07-31T01:45:28;14.20;99.90
33881;DHT22;20172;47.530;10.256;2023-07-31T01:47:55;14.30;99.90
33881;DHT22;20172;47.530;10.256;2023-07-31T01:50:20;14.20;99.90
33881;DHT22;20172;47.530;10.256;2023-07-31T01:52:46;14.20;99.90
33881;DHT22;20172;47.530;10.256;2023-07-31T01:55:11;14.20;99.90
33881;DHT22;20172;47.530;10.256;2023-07-31T01:57:37;14.20;99.90
33881;DHT22;20172;47.530;10.256;2023-07-31T02:00:03;14.20;99.90
33881;DHT22;20172;47.530;10.256;2023-07-31T02:02:29;14.20;99.90
33881;DHT22;20172;47.530;10.256;2023-07-31T02:04:54;14.20;99.90
33881;DHT22;20172;47.530;10.256;2023-07-31T02:07:20;14.20;99.90
33881;DHT22;20172;47.530;10.256;2023-07-31T02:09:45;14.20;99.90
33881;DHT22;20172;47.530;10.256;2023-07-31T02:12:13;14.10;99.90
33881;DHT22;20172;47.530;10.256;2023-07-31T02:14:40;14.00;99.90
33881;DHT22;20172;47.530;10.256;2023-07-31T02:17:05;14.00;99.90
33881;DHT22;20172;47.530;10.256;2023-07-31T02:19:31;14.00;99.90
33881;DHT22;20172;47.530;10.256;2023-07-31T02:21:56;14.00;99.90
33881;DHT22;20172;47.530;10.256;2023-07-31T02:24:24;14.10;99.90
33881;DHT22;20172;47.530;10.256;2023-07-31T02:26:49;14.00;99.90
33881;DHT22;20172;47.530;10.256;2023-07-31T02:29:15;14.00;99.90
33881;DHT22;20172;47.530;10.256;2023-07-31T02:31:40;13.90;99.90
33881;DHT22;20172;47.530;10.256;2023-07-31T02:34:06;13.90;99.90
33881;DHT22;20172;47.530;10.256;2023-07-31T02:36:32;13.80;99.90
33881;DHT22;20172;47.530;10.256;2023-07-31T02:38:57;13.80;99.90
33881;DHT22;20172;47.530;10.256;2023-07-31T02:41:23;13.70;99.90
33881;DHT22;20172;47.530;10.256;2023-07-31T02:43:48;13.60;99.90
33881;DHT22;20172;47.530;10.256;2023-07-31T02:46:14;13.60;99.90
33881;DHT22;20172;47.530;10.256;2023-07-31T02:48:39;13.50;99.90
33881;DHT22;20172;47.530;10.256;2023-07-31T02:51:05;13.40;99.90
33881;DHT22;20172;47.530;10.256;2023-07-31T02:53:30;13.40;99.90
33881;DHT22;20172;47.530;10.256;2023-07-31T02:55:56;13.40;99.90
33881;DHT22;20172;47.530;10.256;2023-07-31T02:58:21;13.40;99.90
33881;DHT22;20172;47.530;10.256;2023-07-31T03:00:47;13.40;99.90
33881;DHT22;20172;47.530;10.256;2023-07-31T03:03:12;13.40;99.90
33881;DHT22;20172;47.530;10.256;2023-07-31T03:05:38;13.40;99.90
33881;DHT22;20172;47.530;10.256;2023-07-31T03:08:03;13.30;99.90
33881;DHT22;20172;47.530;10.256;2023-07-31T03:10:29;13.30;99.90
33881;DHT22;20172;47.530;10.256;2023-07-31T03:12:54;13.30;99.90
33881;DHT22;20172;47.530;10.256;2023-07-31T03:15:20;13.30;99.90
33881;DHT22;20172;47.530;10.256;2023-07-31T03:17:45;13.30;99.90
33881;DHT22;20172;47.530;10.256;2023-07-31T03:20:11;13.30;99.90
33881;DHT22;20172;47.530;10.256;2023-07-31T03:22:36;13.20;99.90
33881;DHT22;20172;47.530;10.256;2023-07-31T03:25:03;13.30;99.90
33881;DHT22;20172;47.530;10.256;2023-07-31T03:27:28;13.30;99.90
33881;DHT22;20172;47.530;10.256;2023-07-31T03:29:54;13.30;99.90
33881;DHT22;20172;47.530;10.256;2023-07-31T03:32:20;13.30;99.90
33881;DHT22;20172;47.530;10.256;2023-07-31T03:34:45;13.30;99.90
33881;DHT22;20172;47.530;10.256;2023-07-31T03:37:11;13.20;99.90
33881;DHT22;20172;47.530;10.256;2023-07-31T03:39:36;13.30;99.90
33881;DHT22;20172;47.530;10.256;2023-07-31T03:42:02;13.30;99.90
33881;DHT22;20172;47.530;10.256;2023-07-31T03:44:28;13.20;99.90
33881;DHT22;20172;47.530;10.256;2023-07-31T03:46:53;13.20;99.90
33881;DHT22;20172;47.530;10.256;2023-07-31T03:49:19;13.20;99.90
33881;DHT22;20172;47.530;10.256;2023-07-31T03:51:44;13.10;99.90
33881;DHT22;20172;47.530;10.256;2023-07-31T03:54:10;12.90;99.90
33881;DHT22;20172;47.530;10.256;2023-07-31T03:56:35;12.90;99.90
33881;DHT22;20172;47.530;10.256;2023-07-31T03:59:01;12.90;99.90
33881;DHT22;20172;47.530;10.256;2023-07-31T04:01:26;12.90;99.90
33881;DHT22;20172;47.530;10.256;2023-07-31T04:03:52;12.90;99.90
33881;DHT22;20172;47.530;10.256;2023-07-31T04:06:17;12.90;99.90
33881;DHT22;20172;47.530;10.256;2023-07-31T04:08:46;12.90;99.90
33881;DHT22;20172;47.530;10.256;2023-07-31T04:11:12;12.90;99.90
33881;DHT22;20172;47.530;10.256;2023-07-31T04:13:38;12.90;99.90
33881;DHT22;20172;47.530;10.256;2023-07-31T04:16:03;12.90;99.90
33881;DHT22;20172;47.530;10.256;2023-07-31T04:18:29;12.90;99.90
33881;DHT22;20172;47.530;10.256;2023-07-31T04:20:56;12.90;99.90
33881;DHT22;20172;47.530;10.256;2023-07-31T04:23:23;13.00;99.90
33881;DHT22;20172;47.530;10.256;2023-07-31T04:25:49;13.10;99.90
33881;DHT22;20172;47.530;10.256;2023-07-31T04:28:14;13.10;99.90
33881;DHT22;20172;47.530;10.256;2023-07-31T04:30:40;13.10;99.90
33881;DHT22;20172;47.530;10.256;2023-07-31T04:33:06;13.10;99.90
33881;DHT22;20172;47.530;10.256;2023-07-31T04:35:31;13.10;99.90
33881;DHT22;20172;47.530;10.256;2023-07-31T04:37:57;13.20;99.90
33881;DHT22;20172;47.530;10.256;2023-07-31T04:40:22;13.20;99.90
33881;DHT22;20172;47.530;10.256;2023-07-31T04:42:48;13.20;99.90
33881;DHT22;20172;47.530;10.256;2023-07-31T04:45:14;13.20;99.90
33881;DHT22;20172;47.530;10.256;2023-07-31T04:47:39;13.20;99.90
33881;DHT22;20172;47.530;10.256;2023-07-31T04:50:05;13.30;99.90
33881;DHT22;20172;47.530;10.256;2023-07-31T04:52:31;13.30;99.90
33881;DHT22;20172;47.530;10.256;2023-07-31T04:54:56;13.30;99.90
33881;DHT22;20172;47.530;10.256;2023-07-31T04:57:22;13.30;99.90
33881;DHT22;20172;47.530;10.256;2023-07-31T04:59:47;13.30;99.90
33881;DHT22;20172;47.530;10.256;2023-07-31T05:02:13;13.30;99.90
33881;DHT22;20172;47.530;10.256;2023-07-31T05:04:38;13.30;99.90
33881;DHT22;20172;47.530;10.256;2023-07-31T05:07:04;13.30;99.90
33881;DHT22;20172;47.530;10.256;2023-07-31T05:09:30;13.30;99.90
33881;DHT22;20172;47.530;10.256;2023-07-31T05:11:55;13.40;99.90
33881;DHT22;20172;47.530;10.256;2023-07-31T05:14:21;13.40;99.90
33881;DHT22;20172;47.530;10.256;2023-07-31T05:16:46;13.60;99.90
33881;DHT22;20172;47.530;10.256;2023-07-31T05:19:12;13.60;99.90
33881;DHT22;20172;47.530;10.256;2023-07-31T05:21:37;13.70;99.90
33881;DHT22;20172;47.530;10.256;2023-07-31T05:24:03;13.90;99.90
33881;DHT22;20172;47.530;10.256;2023-07-31T05:26:29;13.90;99.90
33881;DHT22;20172;47.530;10.256;2023-07-31T05:28:54;14.00;99.90
33881;DHT22;20172;47.530;10.256;2023-07-31T05:31:20;14.10;99.90
33881;DHT22;20172;47.530;10.256;2023-07-31T05:33:47;14.10;99.90
33881;DHT22;20172;47.530;10.256;2023-07-31T05:36:15;14.20;99.90
33881;DHT22;20172;47.530;10.256;2023-07-31T05:38:40;14.30;99.90
33881;DHT22;20172;47.530;10.256;2023-07-31T05:41:06;14.40;99.90
33881;DHT22;20172;47.530;10.256;2023-07-31T05:43:31;14.50;99.90
33881;DHT22;20172;47.530;10.256;2023-07-31T05:45:57;14.50;99.90
33881;DHT22;20172;47.530;10.256;2023-07-31T05:48:22;14.50;99.90
33881;DHT22;20172;47.530;10.256;2023-07-31T05:50:48;14.60;99.90
33881;DHT22;20172;47.530;10.256;2023-07-31T05:53:13;14.60;99.90
33881;DHT22;20172;47.530;10.256;2023-07-31T05:55:39;14.70;99.90
33881;DHT22;20172;47.530;10.256;2023-07-31T05:58:05;14.80;99.90
33881;DHT22;20172;47.530;10.256;2023-07-31T06:00:30;14.90;99.90
33881;DHT22;20172;47.530;10.256;2023-07-31T06:02:56;15.00;99.90
33881;DHT22;20172;47.530;10.256;2023-07-31T06:05:21;15.20;99.90
33881;DHT22;20172;47.530;10.256;2023-07-31T06:07:47;15.30;99.90
33881;DHT22;20172;47.530;10.256;2023-07-31T06:10:13;15.50;99.90
33881;DHT22;20172;47.530;10.256;2023-07-31T06:12:38;15.60;99.90
33881;DHT22;20172;47.530;10.256;2023-07-31T06:15:04;15.80;99.90
33881;DHT22;20172;47.530;10.256;2023-07-31T06:17:30;15.90;99.90
33881;DHT22;20172;47.530;10.256;2023-07-31T06:19:56;16.00;99.90
33881;DHT22;20172;47.530;10.256;2023-07-31T06:22:21;16.10;99.90
33881;DHT22;20172;47.530;10.256;2023-07-31T06:24:47;16.10;99.90
33881;DHT22;20172;47.530;10.256;2023-07-31T06:27:13;16.10;99.90
33881;DHT22;20172;47.530;10.256;2023-07-31T06:29:38;16.00;99.90
33881;DHT22;20172;47.530;10.256;2023-07-31T06:32:04;16.10;99.90
33881;DHT22;20172;47.530;10.256;2023-07-31T06:34:29;16.10;99.90
33881;DHT22;20172;47.530;10.256;2023-07-31T06:36:55;16.10;99.90
33881;DHT22;20172;47.530;10.256;2023-07-31T06:39:21;16.20;99.90
33881;DHT22;20172;47.530;10.256;2023-07-31T06:41:47;16.20;99.90
33881;DHT22;20172;47.530;10.256;2023-07-31T06:44:12;16.30;99.90
33881;DHT22;20172;47.530;10.256;2023-07-31T06:46:38;16.40;99.90
33881;DHT22;20172;47.530;10.256;2023-07-31T06:49:03;16.50;99.90
33881;DHT22;20172;47.530;10.256;2023-07-31T06:51:29;16.60;99.90
33881;DHT22;20172;47.530;10.256;2023-07-31T06:53:57;16.70;99.90
33881;DHT22;20172;47.530;10.256;2023-07-31T06:56:22;16.80;99.90
33881;DHT22;20172;47.530;10.256;2023-07-31T06:58:48;16.90;99.90
33881;DHT22;20172;47.530;10.256;2023-07-31T07:01:13;16.90;99.90
33881;DHT22;20172;47.530;10.256;2023-07-31T07:03:39;17.00;99.90
33881;DHT22;20172;47.530;10.256;2023-07-31T07:06:05;17.10;99.90
33881;DHT22;20172;47.530;10.256;2023-07-31T07:08:30;17.20;99.90
33881;DHT22;20172;47.530;10.256;2023-07-31T07:10:56;17.40;99.90
33881;DHT22;20172;47.530;10.256;2023-07-31T07:13:21;17.50;99.90
33881;DHT22;20172;47.530;10.256;2023-07-31T07:15:50;17.70;99.90
33881;DHT22;20172;47.530;10.256;2023-07-31T07:18:18;17.80;99.90
33881;DHT22;20172;47.530;10.256;2023-07-31T07:20:49;18.00;99.90
33881;DHT22;20172;47.530;10.256;2023-07-31T07:23:15;18.10;99.90
33881;DHT22;20172;47.530;10.256;2023-07-31T07:25:40;18.30;99.90
33881;DHT22;20172;47.530;10.256;2023-07-31T07:28:06;18.40;99.90
33881;DHT22;20172;47.530;10.256;2023-07-31T07:30:31;18.50;99.90
33881;DHT22;20172;47.530;10.256;2023-07-31T07:32:57;18.60;99.90
33881;DHT22;20172;47.530;10.256;2023-07-31T07:35:22;18.70;99.90
33881;DHT22;20172;47.530;10.256;2023-07-31T07:37:48;18.70;99.90
33881;DHT22;20172;47.530;10.256;2023-07-31T07:40:15;18.70;99.90
33881;DHT22;20172;47.530;10.256;2023-07-31T07:42:41;18.60;99.90
33881;DHT22;20172;47.530;10.256;2023-07-31T07:45:06;18.60;99.90
33881;DHT22;20172;47.530;10.256;2023-07-31T07:47:32;18.50;99.90
33881;DHT22;20172;47.530;10.256;2023-07-31T07:49:58;18.60;99.90
33881;DHT22;20172;47.530;10.256;2023-07-31T07:52:23;18.70;99.90
33881;DHT22;20172;47.530;10.256;2023-07-31T07:54:49;18.80;99.90
33881;DHT22;20172;47.530;10.256;2023-07-31T07:57:15;19.00;99.90
33881;DHT22;20172;47.530;10.256;2023-07-31T07:59:40;19.20;99.90
33881;DHT22;20172;47.530;10.256;2023-07-31T08:02:06;19.30;99.90
33881;DHT22;20172;47.530;10.256;2023-07-31T08:04:31;19.60;99.90
33881;DHT22;20172;47.530;10.256;2023-07-31T08:06:57;19.70;99.90
33881;DHT22;20172;47.530;10.256;2023-07-31T08:09:22;19.90;99.90
33881;DHT22;20172;47.530;10.256;2023-07-31T08:11:48;20.00;99.90
33881;DHT22;20172;47.530;10.256;2023-07-31T08:14:14;20.20;99.90
33881;DHT22;20172;47.530;10.256;2023-07-31T08:16:39;20.30;99.90
33881;DHT22;20172;47.530;10.256;2023-07-31T08:19:05;20.40;99.90
33881;DHT22;20172;47.530;10.256;2023-07-31T08:21:33;20.40;99.90
33881;DHT22;20172;47.530;10.256;2023-07-31T08:23:58;20.50;99.90
33881;DHT22;20172;47.530;10.256;2023-07-31T08:26:24;20.60;99.90
33881;DHT22;20172;47.530;10.256;2023-07-31T08:28:49;20.70;99.90
33881;DHT22;20172;47.530;10.256;2023-07-31T08:31:18;20.80;99.90
33881;DHT22;20172;47.530;10.256;2023-07-31T08:33:44;20.90;99.90
33881;DHT22;20172;47.530;10.256;2023-07-31T08:36:09;20.80;99.90
33881;DHT22;20172;47.530;10.256;2023-07-31T08:38:35;20.80;99.90
33881;DHT22;20172;47.530;10.256;2023-07-31T08:41:02;20.70;99.90
33881;DHT22;20172;47.530;10.256;2023-07-31T08:43:31;20.80;99.90
33881;DHT22;20172;47.530;10.256;2023-07-31T08:45:57;20.80;99.90
33881;DHT22;20172;47.530;10.256;2023-07-31T08:48:23;20.80;99.90
33881;DHT22;20172;47.530;10.256;2023-07-31T08:50:49;20.90;99.90
33881;DHT22;20172;47.530;10.256;2023-07-31T08:53:15;21.00;99.90
33881;DHT22;20172;47.530;10.256;2023-07-31T08:55:42;21.10;99.90
33881;DHT22;20172;47.530;10.256;2023-07-31T08:58:07;21.00;99.90
33881;DHT22;20172;47.530;10.256;2023-07-31T09:00:33;21.10;99.90
33881;DHT22;20172;47.530;10.256;2023-07-31T09:03:00;21.10;99.90
33881;DHT22;20172;47.530;10.256;2023-07-31T09:05:30;21.10;99.90
33881;DHT22;20172;47.530;10.256;2023-07-31T09:07:56;21.00;99.90
33881;DHT22;20172;47.530;10.256;2023-07-31T09:10:23;21.00;99.90
33881;DHT22;20172;47.530;10.256;2023-07-31T09:12:49;21.00;99.90
33881;DHT22;20172;47.530;10.256;2023-07-31T09:15:14;21.20;99.90
33881;DHT22;20172;47.530;10.256;2023-07-31T09:17:43;21.20;99.90
33881;DHT22;20172;47.530;10.256;2023-07-31T09:20:16;21.30;99.90
33881;DHT22;20172;47.530;10.256;2023-07-31T09:22:41;21.40;99.90
33881;DHT22;20172;47.530;10.256;2023-07-31T09:25:20;21.50;99.90
33881;DHT22;20172;47.530;10.256;2023-07-31T09:27:57;21.60;99.90
33881;DHT22;20172;47.530;10.256;2023-07-31T09:30:23;21.60;99.90
33881;DHT22;20172;47.530;10.256;2023-07-31T09:32:52;21.70;99.90
33881;DHT22;20172;47.530;10.256;2023-07-31T09:35:53;21.60;99.90
33881;DHT22;20172;47.530;10.256;2023-07-31T09:38:50;21.70;99.90
33881;DHT22;20172;47.530;10.256;2023-07-31T09:41:41;21.70;99.90
33881;DHT22;20172;47.530;10.256;2023-07-31T09:44:09;21.80;99.90
33881;DHT22;20172;47.530;10.256;2023-07-31T09:46:37;21.80;99.90
33881;DHT22;20172;47.530;10.256;2023-07-31T09:49:19;21.70;99.90
33881;DHT22;20172;47.530;10.256;2023-07-31T09:51:45;21.70;99.90
33881;DHT22;20172;47.530;10.256;2023-07-31T09:54:34;21.70;99.90
33881;DHT22;20172;47.530;10.256;2023-07-31T09:57:06;21.80;99.90
33881;DHT22;20172;47.530;10.256;2023-07-31T09:59:35;22.00;99.90
33881;DHT22;20172;47.530;10.256;2023-07-31T10:02:02;22.10;99.90
33881;DHT22;20172;47.530;10.256;2023-07-31T10:04:28;22.30;99.90
33881;DHT22;20172;47.530;10.256;2023-07-31T10:06:59;22.40;99.90
33881;DHT22;20172;47.530;10.256;2023-07-31T10:09:29;22.50;99.90
33881;DHT22;20172;47.530;10.256;2023-07-31T10:11:59;22.70;99.90
33881;DHT22;20172;47.530;10.256;2023-07-31T10:14:28;22.90;99.90
33881;DHT22;20172;47.530;10.256;2023-07-31T10:23:38;23.50;99.90
33881;DHT22;20172;47.530;10.256;2023-07-31T10:26:57;23.70;99.90
33881;DHT22;20172;47.530;10.256;2023-07-31T10:29:55;23.90;99.90
33881;DHT22;20172;47.530;10.256;2023-07-31T10:32:32;24.10;99.90
33881;DHT22;20172;47.530;10.256;2023-07-31T10:35:00;24.30;99.90
33881;DHT22;20172;47.530;10.256;2023-07-31T10:37:44;24.30;99.90
33881;DHT22;20172;47.530;10.256;2023-07-31T10:40:11;24.50;99.90
33881;DHT22;20172;47.530;10.256;2023-07-31T10:42:45;24.50;99.90
33881;DHT22;20172;47.530;10.256;2023-07-31T10:45:12;24.50;99.90
33881;DHT22;20172;47.530;10.256;2023-07-31T10:47:39;24.50;99.90
33881;DHT22;20172;47.530;10.256;2023-07-31T10:50:20;24.50;99.90
33881;DHT22;20172;47.530;10.256;2023-07-31T10:52:47;24.60;99.90
33881;DHT22;20172;47.530;10.256;2023-07-31T10:57:51;24.50;99.90
33881;DHT22;20172;47.530;10.256;2023-07-31T11:03:08;24.50;99.90
33881;DHT22;20172;47.530;10.256;2023-07-31T11:08:23;24.80;99.90
33881;DHT22;20172;47.530;10.256;2023-07-31T11:10:50;24.90;99.90
33881;DHT22;20172;47.530;10.256;2023-07-31T11:13:16;24.90;99.90
33881;DHT22;20172;47.530;10.256;2023-07-31T11:15:41;24.90;99.90
33881;DHT22;20172;47.530;10.256;2023-07-31T11:18:07;24.90;99.90
33881;DHT22;20172;47.530;10.256;2023-07-31T11:20:42;24.90;99.90
33881;DHT22;20172;47.530;10.256;2023-07-31T11:23:08;24.90;99.90
33881;DHT22;20172;47.530;10.256;2023-07-31T11:25:36;25.00;99.90
33881;DHT22;20172;47.530;10.256;2023-07-31T11:28:05;25.00;99.90
33881;DHT22;20172;47.530;10.256;2023-07-31T11:30:31;25.10;99.90
33881;DHT22;20172;47.530;10.256;2023-07-31T11:32:57;25.10;99.90
33881;DHT22;20172;47.530;10.256;2023-07-31T11:35:22;25.20;99.90
33881;DHT22;20172;47.530;10.256;2023-07-31T11:37:48;25.20;99.90
33881;DHT22;20172;47.530;10.256;2023-07-31T11:40:14;25.30;99.90
33881;DHT22;20172;47.530;10.256;2023-07-31T11:42:40;25.30;99.90
33881;DHT22;20172;47.530;10.256;2023-07-31T11:45:06;25.30;99.90
33881;DHT22;20172;47.530;10.256;2023-07-31T11:47:33;25.40;99.90
33881;DHT22;20172;47.530;10.256;2023-07-31T11:50:10;25.50;99.90
33881;DHT22;20172;47.530;10.256;2023-07-31T11:52:37;25.60;99.90
33881;DHT22;20172;47.530;10.256;2023-07-31T11:55:04;25.70;99.90
33881;DHT22;20172;47.530;10.256;2023-07-31T11:57:31;25.80;99.90
33881;DHT22;20172;47.530;10.256;2023-07-31T11:59:57;25.90;99.90
33881;DHT22;20172;47.530;10.256;2023-07-31T12:02:23;26.00;99.90
33881;DHT22;20172;47.530;10.256;2023-07-31T12:04:48;26.00;99.90
33881;DHT22;20172;47.530;10.256;2023-07-31T12:07:20;26.20;99.90
33881;DHT22;20172;47.530;10.256;2023-07-31T12:09:58;26.40;99.90
33881;DHT22;20172;47.530;10.256;2023-07-31T12:15:29;26.70;99.90
33881;DHT22;20172;47.530;10.256;2023-07-31T12:17:55;26.80;99.90
33881;DHT22;20172;47.530;10.256;2023-07-31T12:20:23;26.90;99.90
33881;DHT22;20172;47.530;10.256;2023-07-31T12:22:49;27.10;99.90
33881;DHT22;20172;47.530;10.256;2023-07-31T12:25:15;27.30;99.90
33881;DHT22;20172;47.530;10.256;2023-07-31T12:27:46;27.60;99.90
33881;DHT22;20172;47.530;10.256;2023-07-31T12:33:11;27.80;99.90
33881;DHT22;20172;47.530;10.256;2023-07-31T12:38:31;27.70;99.90
33881;DHT22;20172;47.530;10.256;2023-07-31T12:41:15;27.80;99.90
33881;DHT22;20172;47.530;10.256;2023-07-31T12:43:51;27.80;99.90
33881;DHT22;20172;47.530;10.256;2023-07-31T12:46:46;27.60;99.50
33881;DHT22;20172;47.530;10.256;2023-07-31T12:49:21;27.30;99.90
33881;DHT22;20172;47.530;10.256;2023-07-31T12:51:52;27.20;99.90
33881;DHT22;20172;47.530;10.256;2023-07-31T12:54:22;27.00;99.90
33881;DHT22;20172;47.530;10.256;2023-07-31T12:59:53;26.60;99.80
33881;DHT22;20172;47.530;10.256;2023-07-31T13:02:37;26.60;99.60
33881;DHT22;20172;47.530;10.256;2023-07-31T13:05:22;26.50;99.60
33881;DHT22;20172;47.530;10.256;2023-07-31T13:07:51;26.30;99.90
33881;DHT22;20172;47.530;10.256;2023-07-31T13:10:17;26.20;99.70
33881;DHT22;20172;47.530;10.256;2023-07-31T13:12:54;26.30;99.90
33881;DHT22;20172;47.530;10.256;2023-07-31T13:15:43;26.30;99.90
33881;DHT22;20172;47.530;10.256;2023-07-31T13:18:13;26.50;99.90
33881;DHT22;20172;47.530;10.256;2023-07-31T13:21:02;26.60;99.90
33881;DHT22;20172;47.530;10.256;2023-07-31T13:24:12;26.70;99.90
33881;DHT22;20172;47.530;10.256;2023-07-31T13:26:39;26.80;98.90
33881;DHT22;20172;47.530;10.256;2023-07-31T13:29:13;27.00;99.10
33881;DHT22;20172;47.530;10.256;2023-07-31T13:31:42;27.00;98.40
33881;DHT22;20172;47.530;10.256;2023-07-31T13:34:28;27.00;97.70
33881;DHT22;20172;47.530;10.256;2023-07-31T13:40:06;27.00;96.60
33881;DHT22;20172;47.530;10.256;2023-07-31T13:42:33;27.10;97.20
33881;DHT22;20172;47.530;10.256;2023-07-31T13:45:27;27.30;97.10
33881;DHT22;20172;47.530;10.256;2023-07-31T13:48:20;27.70;97.40
33881;DHT22;20172;47.530;10.256;2023-07-31T13:51:09;28.00;97.50
33881;DHT22;20172;47.530;10.256;2023-07-31T13:53:38;28.20;97.10
33881;DHT22;20172;47.530;10.256;2023-07-31T13:56:33;28.40;96.20
33881;DHT22;20172;47.530;10.256;2023-07-31T13:59:38;28.50;95.70
33881;DHT22;20172;47.530;10.256;2023-07-31T14:02:08;28.50;94.90
33881;DHT22;20172;47.530;10.256;2023-07-31T14:04:34;28.50;94.50
33881;DHT22;20172;47.530;10.256;2023-07-31T14:06:59;28.60;95.10
33881;DHT22;20172;47.530;10.256;2023-07-31T14:09:35;28.70;94.40
33881;DHT22;20172;47.530;10.256;2023-07-31T14:12:04;28.90;93.00
33881;DHT22;20172;47.530;10.256;2023-07-31T14:17:31;28.20;87.80
33881;DHT22;20172;47.530;10.256;2023-07-31T14:20:27;27.90;84.70
33881;DHT22;20172;47.530;10.256;2023-07-31T14:23:18;27.80;81.80
33881;DHT22;20172;47.530;10.256;2023-07-31T14:25:54;27.70;80.50
33881;DHT22;20172;47.530;10.256;2023-07-31T14:28:28;27.70;78.00
33881;DHT22;20172;47.530;10.256;2023-07-31T14:31:01;27.60;78.90
33881;DHT22;20172;47.530;10.256;2023-07-31T14:33:37;27.60;77.80
33881;DHT22;20172;47.530;10.256;2023-07-31T14:36:21;27.50;79.40
33881;DHT22;20172;47.530;10.256;2023-07-31T14:39:31;27.50;77.20
33881;DHT22;20172;47.530;10.256;2023-07-31T14:42:02;27.50;80.80
33881;DHT22;20172;47.530;10.256;2023-07-31T14:44:37;27.60;78.30
33881;DHT22;20172;47.530;10.256;2023-07-31T14:47:13;27.70;80.10
33881;DHT22;20172;47.530;10.256;2023-07-31T14:49:43;27.80;79.10
33881;DHT22;20172;47.530;10.256;2023-07-31T14:52:11;27.90;80.80
33881;DHT22;20172;47.530;10.256;2023-07-31T14:57:21;28.30;81.90
33881;DHT22;20172;47.530;10.256;2023-07-31T14:59:47;28.30;81.00
33881;DHT22;20172;47.530;10.256;2023-07-31T15:02:13;28.20;84.00
33881;DHT22;20172;47.530;10.256;2023-07-31T15:04:38;28.20;84.30
33881;DHT22;20172;47.530;10.256;2023-07-31T15:07:04;28.00;84.30
33881;DHT22;20172;47.530;10.256;2023-07-31T15:09:29;27.90;86.10
33881;DHT22;20172;47.530;10.256;2023-07-31T15:11:55;27.70;85.80
33881;DHT22;20172;47.530;10.256;2023-07-31T15:14:21;27.70;87.10
33881;DHT22;20172;47.530;10.256;2023-07-31T15:16:47;27.50;86.20
33881;DHT22;20172;47.530;10.256;2023-07-31T15:19:12;27.60;86.90
33881;DHT22;20172;47.530;10.256;2023-07-31T15:21:38;27.90;87.50
33881;DHT22;20172;47.530;10.256;2023-07-31T15:24:04;28.10;84.30
33881;DHT22;20172;47.530;10.256;2023-07-31T15:26:29;27.90;84.30
33881;DHT22;20172;47.530;10.256;2023-07-31T15:28:55;27.80;84.50
33881;DHT22;20172;47.530;10.256;2023-07-31T15:31:21;27.80;85.00
33881;DHT22;20172;47.530;10.256;2023-07-31T15:33:47;27.70;84.60
33881;DHT22;20172;47.530;10.256;2023-07-31T15:36:13;27.50;82.50
33881;DHT22;20172;47.530;10.256;2023-07-31T15:38:39;27.50;83.50
33881;DHT22;20172;47.530;10.256;2023-07-31T15:41:05;27.50;84.30
33881;DHT22;20172;47.530;10.256;2023-07-31T15:43:30;27.70;84.20
33881;DHT22;20172;47.530;10.256;2023-07-31T15:45:56;28.00;83.00
33881;DHT22;20172;47.530;10.256;2023-07-31T15:48:24;28.00;82.70
33881;DHT22;20172;47.530;10.256;2023-07-31T15:50:50;28.00;83.30
33881;DHT22;20172;47.530;10.256;2023-07-31T15:53:15;27.80;82.10
33881;DHT22;20172;47.530;10.256;2023-07-31T15:55:44;27.60;82.60
33881;DHT22;20172;47.530;10.256;2023-07-31T15:58:09;27.50;82.90
33881;DHT22;20172;47.530;10.256;2023-07-31T16:00:35;27.30;84.10
33881;DHT22;20172;47.530;10.256;2023-07-31T16:03:00;27.30;86.20
33881;DHT22;20172;47.530;10.256;2023-07-31T16:05:25;27.30;88.00
33881;DHT22;20172;47.530;10.256;2023-07-31T16:07:54;27.20;90.00